Maxwell Air Force Base
KMXF : rendu visible

Aérodrome :











RETROUVEZ-NOUS SUR...

 
LOGIN :

S'inscrire | Disclaimer

   EN    FR    IT 

 









Légende :    VFR   VFR Marginal   IFR   IFR Intensif   IFR Très Intensif
Visi : 
Plafond : 
>= 8 km
>= 3000ft
5 à 8 km
1000 à 3000 ft
1500m à 5 km
500 à 1000 ft
800 à 1500m
200 à 500 ft
< 800m
< 200 ft
Symboles :   Orages  Brouillard  Fortes neiges  Fortes précipitations  Vent > 20 kt






- Altitude de l'aérodrome : 171 ft


KMXF - Maxwell Air Force Base

DERNIER METAR :
  • 230056Z AUTO 09003KT 10SM CLR 07/M02 A3023 RMK AO2 SLP241 T00701019 $

METARs EXPIRÉS :
  • 222356Z AUTO 00000KT 10SM FEW180 07/M02 A3024 RMK AO2 SLPNO T00731022 10104 20073 55005 $
  • 222256Z AUTO 00000KT 10SM CLR 09/M05 A3024 RMK AO2 SLPNO T00911052 $

TAF TAF KMXF
Valide du 22 à 20h jusqu'au 24 à 02h UTC


222000Z 2220/2402 05006KT 9999 BKN250 QNH3022INS
BECMG 2314/2315 10009KT 9999 VCSH BKN030 BKN100 OVC250 QNH3020INS
BECMG 2316/2317 11012KT 8000 -SHRA OVC010 QNH3020INS
BECMG 2401/2402 13010G15KT 8000 -SHRA BKN015 OVC050 QNH3013INS TX10/2220Z TN02/2312Z LAST NO AMDS AFT 2304 NEXT 2312



MET'MAP, la Météo Aéronautique d'un coup d'oeil ! - Copyright ORBIFLY Décembre 2007 - Disclaimer

ORBIFLY MET'MAP TEAM :

Programmation & Développement : Alexandra Zaïnal
Sur une idée originale de : Baudouin d'Aumeries
Assistance à la programmation : Marc-Olivier Méhu
Soutien technique & logistique : Manuel Goepfert

Contact : metmap@orbifly.com




SOURCES & CREDITS :

   NOAA       Earth
Advisory